sensor_id;sensor_type;location;lat;lon;timestamp;temperature;humidity
80282;DHT22;69586;51.890;-8.458;2024-02-16T00:01:01;13.90;63.70
80282;DHT22;69586;51.890;-8.458;2024-02-16T00:03:28;13.90;63.80
80282;DHT22;69586;51.890;-8.458;2024-02-16T00:05:54;13.80;64.00
80282;DHT22;69586;51.890;-8.458;2024-02-16T00:08:20;13.70;64.10
80282;DHT22;69586;51.890;-8.458;2024-02-16T00:10:47;13.80;64.20
80282;DHT22;69586;51.890;-8.458;2024-02-16T00:13:13;13.70;64.20
80282;DHT22;69586;51.890;-8.458;2024-02-16T00:15:39;13.70;64.40
80282;DHT22;69586;51.890;-8.458;2024-02-16T00:18:05;13.70;64.40
80282;DHT22;69586;51.890;-8.458;2024-02-16T00:20:31;13.70;64.20
80282;DHT22;69586;51.890;-8.458;2024-02-16T00:22:58;13.70;64.30
80282;DHT22;69586;51.890;-8.458;2024-02-16T00:25:24;13.70;64.50
80282;DHT22;69586;51.890;-8.458;2024-02-16T00:27:49;13.70;64.40
80282;DHT22;69586;51.890;-8.458;2024-02-16T00:30:18;13.70;64.30
80282;DHT22;69586;51.890;-8.458;2024-02-16T00:32:44;13.70;64.50
80282;DHT22;69586;51.890;-8.458;2024-02-16T00:35:14;13.70;64.60
80282;DHT22;69586;51.890;-8.458;2024-02-16T00:37:42;13.80;64.40
80282;DHT22;69586;51.890;-8.458;2024-02-16T00:40:08;13.80;64.30
80282;DHT22;69586;51.890;-8.458;2024-02-16T00:42:34;13.80;64.30
80282;DHT22;69586;51.890;-8.458;2024-02-16T00:45:00;13.90;64.30
80282;DHT22;69586;51.890;-8.458;2024-02-16T00:47:26;13.90;64.20
80282;DHT22;69586;51.890;-8.458;2024-02-16T00:49:55;13.90;64.20
80282;DHT22;69586;51.890;-8.458;2024-02-16T00:52:22;13.90;64.30
80282;DHT22;69586;51.890;-8.458;2024-02-16T00:54:48;13.80;64.30
80282;DHT22;69586;51.890;-8.458;2024-02-16T00:57:15;13.90;64.40
80282;DHT22;69586;51.890;-8.458;2024-02-16T00:59:41;13.90;64.50
80282;DHT22;69586;51.890;-8.458;2024-02-16T01:02:07;13.90;64.50
80282;DHT22;69586;51.890;-8.458;2024-02-16T01:04:33;13.80;64.60
80282;DHT22;69586;51.890;-8.458;2024-02-16T01:06:59;13.80;64.60
80282;DHT22;69586;51.890;-8.458;2024-02-16T01:09:25;13.80;64.70
80282;DHT22;69586;51.890;-8.458;2024-02-16T01:11:52;13.70;64.70
80282;DHT22;69586;51.890;-8.458;2024-02-16T01:14:18;13.80;64.50
80282;DHT22;69586;51.890;-8.458;2024-02-16T01:16:45;13.90;64.60
80282;DHT22;69586;51.890;-8.458;2024-02-16T01:19:11;13.90;64.50
80282;DHT22;69586;51.890;-8.458;2024-02-16T01:21:37;13.90;64.50
80282;DHT22;69586;51.890;-8.458;2024-02-16T01:24:03;13.90;64.50
80282;DHT22;69586;51.890;-8.458;2024-02-16T01:26:29;13.90;64.50
80282;DHT22;69586;51.890;-8.458;2024-02-16T01:28:55;13.90;64.30
80282;DHT22;69586;51.890;-8.458;2024-02-16T01:31:21;13.90;64.30
80282;DHT22;69586;51.890;-8.458;2024-02-16T01:33:46;13.90;64.30
80282;DHT22;69586;51.890;-8.458;2024-02-16T01:36:12;13.90;64.10
80282;DHT22;69586;51.890;-8.458;2024-02-16T01:38:38;14.00;64.00
80282;DHT22;69586;51.890;-8.458;2024-02-16T01:41:04;14.00;64.00
80282;DHT22;69586;51.890;-8.458;2024-02-16T01:43:30;14.00;63.60
80282;DHT22;69586;51.890;-8.458;2024-02-16T01:45:56;14.00;63.60
80282;DHT22;69586;51.890;-8.458;2024-02-16T01:48:24;14.00;63.60
80282;DHT22;69586;51.890;-8.458;2024-02-16T01:50:52;14.00;63.60
80282;DHT22;69586;51.890;-8.458;2024-02-16T01:53:19;14.00;63.60
80282;DHT22;69586;51.890;-8.458;2024-02-16T01:55:49;14.00;63.50
80282;DHT22;69586;51.890;-8.458;2024-02-16T01:58:15;14.00;63.60
80282;DHT22;69586;51.890;-8.458;2024-02-16T02:00:41;14.00;63.60
80282;DHT22;69586;51.890;-8.458;2024-02-16T02:03:07;14.00;63.40
80282;DHT22;69586;51.890;-8.458;2024-02-16T02:05:33;13.90;63.40
80282;DHT22;69586;51.890;-8.458;2024-02-16T02:07:59;13.90;63.50
80282;DHT22;69586;51.890;-8.458;2024-02-16T02:10:34;13.90;63.50
80282;DHT22;69586;51.890;-8.458;2024-02-16T02:13:00;13.90;63.60
80282;DHT22;69586;51.890;-8.458;2024-02-16T02:15:25;13.80;63.50
80282;DHT22;69586;51.890;-8.458;2024-02-16T02:17:51;13.70;63.40
80282;DHT22;69586;51.890;-8.458;2024-02-16T02:20:17;13.70;63.40
80282;DHT22;69586;51.890;-8.458;2024-02-16T02:22:43;13.70;63.40
80282;DHT22;69586;51.890;-8.458;2024-02-16T02:25:08;13.60;63.60
80282;DHT22;69586;51.890;-8.458;2024-02-16T02:27:36;13.60;63.70
80282;DHT22;69586;51.890;-8.458;2024-02-16T02:30:03;13.60;63.60
80282;DHT22;69586;51.890;-8.458;2024-02-16T02:32:28;13.60;63.70
80282;DHT22;69586;51.890;-8.458;2024-02-16T02:34:55;13.60;63.90
80282;DHT22;69586;51.890;-8.458;2024-02-16T02:37:20;13.60;63.90
80282;DHT22;69586;51.890;-8.458;2024-02-16T02:39:46;13.60;63.80
80282;DHT22;69586;51.890;-8.458;2024-02-16T02:42:12;13.70;63.70
80282;DHT22;69586;51.890;-8.458;2024-02-16T02:44:38;13.70;63.60
80282;DHT22;69586;51.890;-8.458;2024-02-16T02:47:04;13.70;63.50
80282;DHT22;69586;51.890;-8.458;2024-02-16T02:49:30;13.80;63.50
80282;DHT22;69586;51.890;-8.458;2024-02-16T02:51:56;13.80;63.40
80282;DHT22;69586;51.890;-8.458;2024-02-16T02:54:22;13.70;63.30
80282;DHT22;69586;51.890;-8.458;2024-02-16T02:56:48;13.70;63.30
80282;DHT22;69586;51.890;-8.458;2024-02-16T02:59:13;13.70;63.20
80282;DHT22;69586;51.890;-8.458;2024-02-16T03:01:39;13.70;63.00
80282;DHT22;69586;51.890;-8.458;2024-02-16T03:04:05;13.70;63.00
80282;DHT22;69586;51.890;-8.458;2024-02-16T03:06:31;13.70;63.00
80282;DHT22;69586;51.890;-8.458;2024-02-16T03:08:57;13.60;63.10
80282;DHT22;69586;51.890;-8.458;2024-02-16T03:11:22;13.50;63.00
80282;DHT22;69586;51.890;-8.458;2024-02-16T03:13:48;13.50;63.20
80282;DHT22;69586;51.890;-8.458;2024-02-16T03:16:14;13.50;63.20
80282;DHT22;69586;51.890;-8.458;2024-02-16T03:18:40;13.50;63.30
80282;DHT22;69586;51.890;-8.458;2024-02-16T03:21:05;13.50;63.40
80282;DHT22;69586;51.890;-8.458;2024-02-16T03:23:33;13.50;63.50
80282;DHT22;69586;51.890;-8.458;2024-02-16T03:25:58;13.40;63.60
80282;DHT22;69586;51.890;-8.458;2024-02-16T03:28:24;13.50;63.50
80282;DHT22;69586;51.890;-8.458;2024-02-16T03:30:50;13.50;63.50
80282;DHT22;69586;51.890;-8.458;2024-02-16T03:33:16;13.50;63.40
80282;DHT22;69586;51.890;-8.458;2024-02-16T03:35:42;13.60;63.40
80282;DHT22;69586;51.890;-8.458;2024-02-16T03:38:08;13.60;63.20
80282;DHT22;69586;51.890;-8.458;2024-02-16T03:40:34;13.50;63.30
80282;DHT22;69586;51.890;-8.458;2024-02-16T03:43:00;13.50;63.40
80282;DHT22;69586;51.890;-8.458;2024-02-16T03:45:26;13.50;63.50
80282;DHT22;69586;51.890;-8.458;2024-02-16T03:47:54;13.50;63.50
80282;DHT22;69586;51.890;-8.458;2024-02-16T03:50:20;13.50;63.60
80282;DHT22;69586;51.890;-8.458;2024-02-16T03:52:46;13.50;63.50
80282;DHT22;69586;51.890;-8.458;2024-02-16T03:55:12;13.50;63.50
80282;DHT22;69586;51.890;-8.458;2024-02-16T03:57:39;13.50;63.50
80282;DHT22;69586;51.890;-8.458;2024-02-16T04:00:06;13.50;63.30
80282;DHT22;69586;51.890;-8.458;2024-02-16T04:02:32;13.50;63.20
80282;DHT22;69586;51.890;-8.458;2024-02-16T04:04:58;13.40;63.40
80282;DHT22;69586;51.890;-8.458;2024-02-16T04:07:24;13.30;63.40
80282;DHT22;69586;51.890;-8.458;2024-02-16T04:09:50;13.40;63.40
80282;DHT22;69586;51.890;-8.458;2024-02-16T04:12:16;13.40;63.30
80282;DHT22;69586;51.890;-8.458;2024-02-16T04:14:41;13.30;63.40
80282;DHT22;69586;51.890;-8.458;2024-02-16T04:17:08;13.40;63.30
80282;DHT22;69586;51.890;-8.458;2024-02-16T04:19:36;13.30;63.40
80282;DHT22;69586;51.890;-8.458;2024-02-16T04:22:02;13.30;63.50
80282;DHT22;69586;51.890;-8.458;2024-02-16T04:24:29;13.30;63.50
80282;DHT22;69586;51.890;-8.458;2024-02-16T04:26:54;13.30;63.60
80282;DHT22;69586;51.890;-8.458;2024-02-16T04:29:20;13.30;63.40
80282;DHT22;69586;51.890;-8.458;2024-02-16T04:31:46;13.30;63.50
80282;DHT22;69586;51.890;-8.458;2024-02-16T04:34:13;13.30;63.40
80282;DHT22;69586;51.890;-8.458;2024-02-16T04:36:39;13.30;63.20
80282;DHT22;69586;51.890;-8.458;2024-02-16T04:39:04;13.30;63.30
80282;DHT22;69586;51.890;-8.458;2024-02-16T04:41:30;13.20;63.40
80282;DHT22;69586;51.890;-8.458;2024-02-16T04:43:56;13.20;63.60
80282;DHT22;69586;51.890;-8.458;2024-02-16T04:46:22;13.20;63.60
80282;DHT22;69586;51.890;-8.458;2024-02-16T04:48:48;13.20;63.70
80282;DHT22;69586;51.890;-8.458;2024-02-16T04:51:13;13.30;63.70
80282;DHT22;69586;51.890;-8.458;2024-02-16T04:53:39;13.30;63.60
80282;DHT22;69586;51.890;-8.458;2024-02-16T04:56:05;13.40;63.50
80282;DHT22;69586;51.890;-8.458;2024-02-16T04:58:31;13.40;63.30
80282;DHT22;69586;51.890;-8.458;2024-02-16T05:00:57;13.50;63.30
80282;DHT22;69586;51.890;-8.458;2024-02-16T05:03:23;13.50;63.10
80282;DHT22;69586;51.890;-8.458;2024-02-16T05:05:50;13.50;63.20
80282;DHT22;69586;51.890;-8.458;2024-02-16T05:08:17;13.50;62.90
80282;DHT22;69586;51.890;-8.458;2024-02-16T05:10:43;13.50;63.00
80282;DHT22;69586;51.890;-8.458;2024-02-16T05:13:08;13.30;63.00
80282;DHT22;69586;51.890;-8.458;2024-02-16T05:15:35;13.30;63.10
80282;DHT22;69586;51.890;-8.458;2024-02-16T05:18:00;13.30;63.20
80282;DHT22;69586;51.890;-8.458;2024-02-16T05:20:26;13.40;63.10
80282;DHT22;69586;51.890;-8.458;2024-02-16T05:22:52;13.40;63.00
80282;DHT22;69586;51.890;-8.458;2024-02-16T05:25:18;13.50;63.00
80282;DHT22;69586;51.890;-8.458;2024-02-16T05:27:45;13.30;62.90
80282;DHT22;69586;51.890;-8.458;2024-02-16T05:30:11;13.30;63.00
80282;DHT22;69586;51.890;-8.458;2024-02-16T05:32:40;13.30;63.00
80282;DHT22;69586;51.890;-8.458;2024-02-16T05:35:06;13.30;63.30
80282;DHT22;69586;51.890;-8.458;2024-02-16T05:37:47;13.30;63.40
80282;DHT22;69586;51.890;-8.458;2024-02-16T05:40:15;13.30;63.40
80282;DHT22;69586;51.890;-8.458;2024-02-16T05:42:49;13.30;63.30
80282;DHT22;69586;51.890;-8.458;2024-02-16T05:45:15;13.40;63.30
80282;DHT22;69586;51.890;-8.458;2024-02-16T05:47:42;13.50;63.00
80282;DHT22;69586;51.890;-8.458;2024-02-16T05:50:08;13.50;63.00
80282;DHT22;69586;51.890;-8.458;2024-02-16T05:52:34;13.50;63.20
80282;DHT22;69586;51.890;-8.458;2024-02-16T05:55:00;13.50;63.00
80282;DHT22;69586;51.890;-8.458;2024-02-16T05:57:26;13.50;62.90
80282;DHT22;69586;51.890;-8.458;2024-02-16T05:59:52;13.50;62.90
80282;DHT22;69586;51.890;-8.458;2024-02-16T06:02:18;13.40;63.00
80282;DHT22;69586;51.890;-8.458;2024-02-16T06:04:44;13.30;62.90
80282;DHT22;69586;51.890;-8.458;2024-02-16T06:07:09;13.30;62.90
80282;DHT22;69586;51.890;-8.458;2024-02-16T06:09:36;13.30;62.90
80282;DHT22;69586;51.890;-8.458;2024-02-16T06:12:06;13.30;63.00
80282;DHT22;69586;51.890;-8.458;2024-02-16T06:14:33;13.30;62.90
80282;DHT22;69586;51.890;-8.458;2024-02-16T06:16:59;13.30;62.90
80282;DHT22;69586;51.890;-8.458;2024-02-16T06:19:26;13.30;62.90
80282;DHT22;69586;51.890;-8.458;2024-02-16T06:21:53;13.30;62.80
80282;DHT22;69586;51.890;-8.458;2024-02-16T06:24:24;13.30;63.10
80282;DHT22;69586;51.890;-8.458;2024-02-16T06:26:50;13.30;63.20
80282;DHT22;69586;51.890;-8.458;2024-02-16T06:29:17;13.40;62.90
80282;DHT22;69586;51.890;-8.458;2024-02-16T06:31:45;13.40;62.70
80282;DHT22;69586;51.890;-8.458;2024-02-16T06:34:13;13.40;62.80
80282;DHT22;69586;51.890;-8.458;2024-02-16T06:36:39;13.50;62.70
80282;DHT22;69586;51.890;-8.458;2024-02-16T06:39:05;13.50;62.60
80282;DHT22;69586;51.890;-8.458;2024-02-16T06:41:30;13.50;62.70
80282;DHT22;69586;51.890;-8.458;2024-02-16T06:43:56;13.50;62.50
80282;DHT22;69586;51.890;-8.458;2024-02-16T06:46:22;13.50;62.50
80282;DHT22;69586;51.890;-8.458;2024-02-16T06:48:48;13.60;62.20
80282;DHT22;69586;51.890;-8.458;2024-02-16T06:51:13;13.60;62.20
80282;DHT22;69586;51.890;-8.458;2024-02-16T06:53:39;13.50;62.00
80282;DHT22;69586;51.890;-8.458;2024-02-16T06:56:05;13.50;61.90
80282;DHT22;69586;51.890;-8.458;2024-02-16T06:58:31;13.50;62.20
80282;DHT22;69586;51.890;-8.458;2024-02-16T07:00:57;13.50;62.10
80282;DHT22;69586;51.890;-8.458;2024-02-16T07:03:28;13.50;61.90
80282;DHT22;69586;51.890;-8.458;2024-02-16T07:05:54;13.50;62.00
80282;DHT22;69586;51.890;-8.458;2024-02-16T07:08:20;13.50;61.90
80282;DHT22;69586;51.890;-8.458;2024-02-16T07:10:47;13.50;61.80
80282;DHT22;69586;51.890;-8.458;2024-02-16T07:13:13;13.50;61.80
80282;DHT22;69586;51.890;-8.458;2024-02-16T07:15:39;13.50;61.60
80282;DHT22;69586;51.890;-8.458;2024-02-16T07:18:05;13.50;61.70
80282;DHT22;69586;51.890;-8.458;2024-02-16T07:20:31;13.50;61.70
80282;DHT22;69586;51.890;-8.458;2024-02-16T07:22:57;13.50;61.70
80282;DHT22;69586;51.890;-8.458;2024-02-16T07:25:23;13.60;61.30
80282;DHT22;69586;51.890;-8.458;2024-02-16T07:27:48;13.60;61.20
80282;DHT22;69586;51.890;-8.458;2024-02-16T07:30:14;13.60;61.30
80282;DHT22;69586;51.890;-8.458;2024-02-16T07:32:40;13.70;60.90
80282;DHT22;69586;51.890;-8.458;2024-02-16T07:35:06;13.60;60.80
80282;DHT22;69586;51.890;-8.458;2024-02-16T07:37:32;13.60;60.90
80282;DHT22;69586;51.890;-8.458;2024-02-16T07:39:58;13.70;61.10
80282;DHT22;69586;51.890;-8.458;2024-02-16T07:42:23;13.70;60.80
80282;DHT22;69586;51.890;-8.458;2024-02-16T07:44:49;13.70;60.90
80282;DHT22;69586;51.890;-8.458;2024-02-16T07:47:16;13.70;60.50
80282;DHT22;69586;51.890;-8.458;2024-02-16T07:49:42;13.60;60.70
80282;DHT22;69586;51.890;-8.458;2024-02-16T07:52:07;13.60;60.70
80282;DHT22;69586;51.890;-8.458;2024-02-16T07:54:34;13.60;60.70
80282;DHT22;69586;51.890;-8.458;2024-02-16T07:57:00;13.70;60.60
80282;DHT22;69586;51.890;-8.458;2024-02-16T07:59:26;13.70;60.60
80282;DHT22;69586;51.890;-8.458;2024-02-16T08:01:52;13.70;60.50
80282;DHT22;69586;51.890;-8.458;2024-02-16T08:04:17;13.60;60.70
80282;DHT22;69586;51.890;-8.458;2024-02-16T08:06:43;13.70;60.80
80282;DHT22;69586;51.890;-8.458;2024-02-16T08:09:09;13.70;61.00
80282;DHT22;69586;51.890;-8.458;2024-02-16T08:11:34;13.80;61.10
80282;DHT22;69586;51.890;-8.458;2024-02-16T08:14:00;13.80;60.80
80282;DHT22;69586;51.890;-8.458;2024-02-16T08:16:27;13.90;60.70
80282;DHT22;69586;51.890;-8.458;2024-02-16T08:18:53;13.90;60.50
80282;DHT22;69586;51.890;-8.458;2024-02-16T08:21:19;13.80;60.50
80282;DHT22;69586;51.890;-8.458;2024-02-16T08:23:46;13.80;60.70
80282;DHT22;69586;51.890;-8.458;2024-02-16T08:26:12;13.80;60.60
80282;DHT22;69586;51.890;-8.458;2024-02-16T08:28:38;13.70;60.70
80282;DHT22;69586;51.890;-8.458;2024-02-16T08:31:05;13.70;60.90
80282;DHT22;69586;51.890;-8.458;2024-02-16T08:33:32;13.70;60.80
80282;DHT22;69586;51.890;-8.458;2024-02-16T08:35:58;13.80;60.90
80282;DHT22;69586;51.890;-8.458;2024-02-16T08:38:24;13.80;60.80
80282;DHT22;69586;51.890;-8.458;2024-02-16T08:40:50;13.90;61.10
80282;DHT22;69586;51.890;-8.458;2024-02-16T08:43:17;14.00;60.90
80282;DHT22;69586;51.890;-8.458;2024-02-16T08:45:43;14.10;60.90
80282;DHT22;69586;51.890;-8.458;2024-02-16T08:48:09;14.30;60.70
80282;DHT22;69586;51.890;-8.458;2024-02-16T08:50:35;14.40;60.70
80282;DHT22;69586;51.890;-8.458;2024-02-16T08:53:01;14.50;60.80
80282;DHT22;69586;51.890;-8.458;2024-02-16T08:55:27;14.80;61.20
80282;DHT22;69586;51.890;-8.458;2024-02-16T08:57:52;15.10;60.80
80282;DHT22;69586;51.890;-8.458;2024-02-16T09:00:18;15.50;60.60
80282;DHT22;69586;51.890;-8.458;2024-02-16T09:02:44;16.00;59.90
80282;DHT22;69586;51.890;-8.458;2024-02-16T09:05:11;16.40;59.50
80282;DHT22;69586;51.890;-8.458;2024-02-16T09:07:37;16.90;58.40
80282;DHT22;69586;51.890;-8.458;2024-02-16T09:10:04;17.20;57.20
80282;DHT22;69586;51.890;-8.458;2024-02-16T09:12:30;17.50;56.90
80282;DHT22;69586;51.890;-8.458;2024-02-16T09:14:55;17.80;56.20
80282;DHT22;69586;51.890;-8.458;2024-02-16T09:17:21;18.00;55.70
80282;DHT22;69586;51.890;-8.458;2024-02-16T09:19:47;18.40;55.30
80282;DHT22;69586;51.890;-8.458;2024-02-16T09:22:13;18.80;54.40
80282;DHT22;69586;51.890;-8.458;2024-02-16T09:24:39;19.10;54.20
80282;DHT22;69586;51.890;-8.458;2024-02-16T09:27:06;19.50;52.70
80282;DHT22;69586;51.890;-8.458;2024-02-16T09:29:32;19.80;52.50
80282;DHT22;69586;51.890;-8.458;2024-02-16T09:32:00;20.10;51.50
80282;DHT22;69586;51.890;-8.458;2024-02-16T09:34:26;20.30;51.10
80282;DHT22;69586;51.890;-8.458;2024-02-16T09:36:52;20.50;50.50
80282;DHT22;69586;51.890;-8.458;2024-02-16T14:59:19;17.30;63.20
80282;DHT22;69586;51.890;-8.458;2024-02-16T15:01:45;17.30;62.80
80282;DHT22;69586;51.890;-8.458;2024-02-16T15:04:11;17.40;62.80
80282;DHT22;69586;51.890;-8.458;2024-02-16T15:06:36;17.40;63.00
80282;DHT22;69586;51.890;-8.458;2024-02-16T15:09:03;17.50;62.80
80282;DHT22;69586;51.890;-8.458;2024-02-16T15:11:32;17.50;62.70
80282;DHT22;69586;51.890;-8.458;2024-02-16T15:13:57;17.50;62.50
80282;DHT22;69586;51.890;-8.458;2024-02-16T15:16:23;17.50;62.60
80282;DHT22;69586;51.890;-8.458;2024-02-16T15:18:49;17.50;62.60
80282;DHT22;69586;51.890;-8.458;2024-02-16T15:21:15;17.50;62.70
80282;DHT22;69586;51.890;-8.458;2024-02-16T15:23:41;17.50;62.80
80282;DHT22;69586;51.890;-8.458;2024-02-16T15:26:10;17.50;62.60
80282;DHT22;69586;51.890;-8.458;2024-02-16T15:28:36;17.50;62.40
80282;DHT22;69586;51.890;-8.458;2024-02-16T15:31:04;17.50;62.20
80282;DHT22;69586;51.890;-8.458;2024-02-16T15:33:30;17.50;62.30
80282;DHT22;69586;51.890;-8.458;2024-02-16T15:35:56;17.50;62.30
80282;DHT22;69586;51.890;-8.458;2024-02-16T15:38:25;17.50;62.60
80282;DHT22;69586;51.890;-8.458;2024-02-16T15:40:51;17.50;62.40
80282;DHT22;69586;51.890;-8.458;2024-02-16T15:43:17;17.50;62.30
80282;DHT22;69586;51.890;-8.458;2024-02-16T15:45:43;17.50;62.30
80282;DHT22;69586;51.890;-8.458;2024-02-16T15:48:11;17.50;62.30
80282;DHT22;69586;51.890;-8.458;2024-02-16T15:50:40;17.50;62.30
80282;DHT22;69586;51.890;-8.458;2024-02-16T15:53:06;17.50;62.20
80282;DHT22;69586;51.890;-8.458;2024-02-16T15:55:32;17.40;62.50
80282;DHT22;69586;51.890;-8.458;2024-02-16T15:57:58;17.40;62.80
80282;DHT22;69586;51.890;-8.458;2024-02-16T16:00:24;17.40;62.90
80282;DHT22;69586;51.890;-8.458;2024-02-16T16:02:51;17.20;63.10
80282;DHT22;69586;51.890;-8.458;2024-02-16T16:05:17;17.20;63.30
80282;DHT22;69586;51.890;-8.458;2024-02-16T16:07:43;17.20;63.60
80282;DHT22;69586;51.890;-8.458;2024-02-16T16:10:09;17.20;63.70
80282;DHT22;69586;51.890;-8.458;2024-02-16T16:12:36;17.10;63.60
80282;DHT22;69586;51.890;-8.458;2024-02-16T16:15:02;17.00;63.70
80282;DHT22;69586;51.890;-8.458;2024-02-16T16:17:29;17.00;63.60
80282;DHT22;69586;51.890;-8.458;2024-02-16T16:19:55;17.00;63.60
80282;DHT22;69586;51.890;-8.458;2024-02-16T16:22:21;17.00;63.60
80282;DHT22;69586;51.890;-8.458;2024-02-16T16:24:47;17.00;63.70
80282;DHT22;69586;51.890;-8.458;2024-02-16T16:27:12;17.00;63.80
80282;DHT22;69586;51.890;-8.458;2024-02-16T16:29:38;17.00;63.70
80282;DHT22;69586;51.890;-8.458;2024-02-16T16:32:08;17.00;63.60
80282;DHT22;69586;51.890;-8.458;2024-02-16T16:34:34;17.00;63.60
80282;DHT22;69586;51.890;-8.458;2024-02-16T16:37:00;17.00;63.50
80282;DHT22;69586;51.890;-8.458;2024-02-16T16:39:26;17.00;63.60
80282;DHT22;69586;51.890;-8.458;2024-02-16T16:41:52;17.00;63.70
80282;DHT22;69586;51.890;-8.458;2024-02-16T16:44:19;17.00;63.60
80282;DHT22;69586;51.890;-8.458;2024-02-16T16:46:45;17.00;63.60
80282;DHT22;69586;51.890;-8.458;2024-02-16T16:49:11;17.00;63.60
80282;DHT22;69586;51.890;-8.458;2024-02-16T16:51:37;17.00;63.70
80282;DHT22;69586;51.890;-8.458;2024-02-16T16:54:03;16.90;64.00
80282;DHT22;69586;51.890;-8.458;2024-02-16T16:56:30;16.90;64.30
80282;DHT22;69586;51.890;-8.458;2024-02-16T16:58:56;16.80;64.20
80282;DHT22;69586;51.890;-8.458;2024-02-16T17:01:22;16.80;64.10
80282;DHT22;69586;51.890;-8.458;2024-02-16T17:03:47;16.80;63.90
80282;DHT22;69586;51.890;-8.458;2024-02-16T17:06:13;16.70;64.10
80282;DHT22;69586;51.890;-8.458;2024-02-16T17:08:39;16.70;64.20
80282;DHT22;69586;51.890;-8.458;2024-02-16T17:11:06;16.70;64.10
80282;DHT22;69586;51.890;-8.458;2024-02-16T17:13:34;16.60;64.10
80282;DHT22;69586;51.890;-8.458;2024-02-16T17:16:00;16.60;64.10
80282;DHT22;69586;51.890;-8.458;2024-02-16T17:18:26;16.60;64.20
80282;DHT22;69586;51.890;-8.458;2024-02-16T17:20:55;16.60;64.20
80282;DHT22;69586;51.890;-8.458;2024-02-16T17:23:21;16.50;64.30
80282;DHT22;69586;51.890;-8.458;2024-02-16T17:25:47;16.50;64.30
80282;DHT22;69586;51.890;-8.458;2024-02-16T17:28:14;16.40;64.30
80282;DHT22;69586;51.890;-8.458;2024-02-16T17:30:40;16.40;64.30
80282;DHT22;69586;51.890;-8.458;2024-02-16T17:33:09;16.40;64.40
80282;DHT22;69586;51.890;-8.458;2024-02-16T17:35:34;16.40;64.50
80282;DHT22;69586;51.890;-8.458;2024-02-16T17:38:00;16.40;64.60
80282;DHT22;69586;51.890;-8.458;2024-02-16T17:40:26;16.30;64.50
80282;DHT22;69586;51.890;-8.458;2024-02-16T17:42:52;16.20;64.70
80282;DHT22;69586;51.890;-8.458;2024-02-16T17:45:19;16.20;64.80
80282;DHT22;69586;51.890;-8.458;2024-02-16T17:47:46;16.20;64.80
80282;DHT22;69586;51.890;-8.458;2024-02-16T17:50:12;16.20;64.80
80282;DHT22;69586;51.890;-8.458;2024-02-16T17:52:38;16.20;64.80
80282;DHT22;69586;51.890;-8.458;2024-02-16T17:55:04;16.10;64.80
80282;DHT22;69586;51.890;-8.458;2024-02-16T17:57:30;16.10;64.90
